Lake In The Hills, Illinois
Current Conditions -  °F | °C
As of 2:52 AM on Monday 24 Nov 2014 (Local Time) from KDPA Reporting Station
Haze Haze  
Wind Chill: 45°   Ceiling: 400
Heat Index: 48°   Visibility: 3mi
Dew Point: 47°   Wind: 7mph
Humidity: 96%   Direction: 240°WSW
Pressure: 29.08"   Gusts: NA
Location:  42.18°N, 88.33°W
Report Text: KDPA 240852Z 24006KT 3SM BR OVC004 09/08 A2908 RMK AO2 RAE0756 SLP846 P0000 60002 T00890083 55006 $
Loading
Personal Weather Stations






























Interactive Weather Map New forecast layout! Learn more

10-Day Weather Forecast

Advertisements
Track Severe Weather on mobile